Time;durP1;ratioP1;P1;durP2;ratioP2;P2;SDS_P1;SDS_P2;PMS_P1;PMS_P2;Temp;Humidity;BMP_temperature;BMP_pressure;BME280_temperature;BME280_humidity;BME280_pressure;Samples;Min_cycle;Max_cycle;Signal;HPM_P1;HPM_P2
2024/01/17 00:01:14;;;;;;;42.57;29.47;;;;;;;0.74;62.83;94827.41;5045546;28;20302;-70
2024/01/17 00:03:40;;;;;;;44.50;29.90;;;;;;;0.71;62.58;94837.94;5069543;28;20229;-69
2024/01/17 00:06:05;;;;;;;40.80;30.90;;;;;;;0.65;63.11;94837.41;5051991;28;20217;-70
2024/01/17 00:08:31;;;;;;;42.07;31.87;;;;;;;0.40;63.75;94840.72;5048685;28;20186;-70
2024/01/17 00:10:56;;;;;;;44.40;33.90;;;;;;;0.21;64.52;94828.06;5041157;28;20250;-74
2024/01/17 00:13:22;;;;;;;44.93;34.00;;;;;;;0.47;64.14;94835.16;5049551;28;20220;-73
2024/01/17 00:15:47;;;;;;;41.13;33.10;;;;;;;0.50;63.76;94837.53;5052993;28;20222;-70
2024/01/17 00:18:13;;;;;;;44.00;32.70;;;;;;;0.48;63.80;94836.78;5052198;28;20217;-70
2024/01/17 00:20:38;;;;;;;46.07;33.83;;;;;;;0.52;63.51;94833.94;5052491;28;20217;-70
2024/01/17 00:23:04;;;;;;;46.03;33.53;;;;;;;0.55;63.51;94849.25;5053530;28;20263;-71
2024/01/17 00:25:29;;;;;;;43.73;33.53;;;;;;;0.58;63.60;94848.22;5052553;28;20251;-69
2024/01/17 00:27:54;;;;;;;47.97;36.93;;;;;;;0.58;63.48;94850.81;5051668;28;20225;-71
2024/01/17 00:30:20;;;;;;;47.80;36.30;;;;;;;0.34;63.97;94851.41;5052863;28;20657;-74
2024/01/17 00:32:45;;;;;;;49.03;36.60;;;;;;;0.27;64.32;94855.31;5046372;28;20308;-75
2024/01/17 00:35:11;;;;;;;44.80;34.37;;;;;;;0.28;64.19;94846.63;5053060;28;20181;-75
2024/01/17 00:37:36;;;;;;;42.00;33.33;;;;;;;0.29;64.36;94856.03;5049123;28;20233;-75
2024/01/17 00:40:02;;;;;;;36.70;30.50;;;;;;;0.19;64.07;94844.59;5052346;28;20214;-74
2024/01/17 00:42:27;;;;;;;34.83;28.37;;;;;;;0.28;64.08;94845.78;5050353;28;20308;-74
2024/01/17 00:44:53;;;;;;;41.03;32.10;;;;;;;0.25;64.14;94854.56;5047888;28;20221;-74
2024/01/17 00:47:19;;;;;;;45.77;35.97;;;;;;;0.10;64.89;94848.56;5052230;28;20186;-73
2024/01/17 00:49:44;;;;;;;49.20;40.20;;;;;;;0.20;64.85;94847.09;5050463;28;20188;-69
2024/01/17 00:52:10;;;;;;;51.07;38.57;;;;;;;0.11;64.68;94845.06;5050753;28;20213;-75
2024/01/17 00:54:35;;;;;;;52.07;38.27;;;;;;;0.30;64.55;94847.38;5052338;28;20247;-75
2024/01/17 00:57:01;;;;;;;54.67;39.80;;;;;;;0.27;64.39;94834.63;5050342;28;20241;-74
2024/01/17 00:59:26;;;;;;;46.97;36.13;;;;;;;0.34;64.16;94815.19;5049952;28;20193;-73
2024/01/17 01:01:52;;;;;;;43.37;33.60;;;;;;;0.37;63.75;94819.34;5065098;28;20203;-74
2024/01/17 01:04:17;;;;;;;50.73;35.40;;;;;;;0.32;63.97;94814.47;5051516;28;20229;-75
2024/01/17 01:06:42;;;;;;;46.37;35.63;;;;;;;0.17;64.69;94828.34;5068371;28;20217;-74
2024/01/17 01:09:09;;;;;;;47.27;36.43;;;;;;;0.20;64.16;94820.41;5051400;28;20221;-73
2024/01/17 01:11:36;;;;;;;47.13;35.63;;;;;;;0.21;64.31;94829.81;5049568;28;20194;-73
2024/01/17 01:14:02;;;;;;;50.33;38.43;;;;;;;0.22;64.24;94821.16;5024398;28;20195;-74
2024/01/17 01:16:27;;;;;;;48.73;37.30;;;;;;;0.17;64.41;94828.34;5047654;28;20225;-74
2024/01/17 01:18:53;;;;;;;50.83;38.20;;;;;;;0.22;64.38;94818.56;5051672;28;20245;-74
2024/01/17 01:21:19;;;;;;;48.70;37.17;;;;;;;0.17;64.79;94811.06;5051372;28;20310;-74
2024/01/17 01:23:45;;;;;;;50.93;38.20;;;;;;;0.26;64.49;94804.50;5051982;28;20244;-74
2024/01/17 01:26:11;;;;;;;46.83;36.20;;;;;;;0.29;63.98;94800.91;5046503;28;20205;-73
2024/01/17 01:28:36;;;;;;;43.67;34.57;;;;;;;0.31;63.73;94799.88;5048539;28;20271;-74
2024/01/17 01:31:02;;;;;;;46.93;36.07;;;;;;;0.32;64.15;94816.22;5050940;28;20221;-73
2024/01/17 01:33:27;;;;;;;46.73;34.67;;;;;;;0.28;64.26;94819.94;5052144;28;20309;-72
2024/01/17 01:35:53;;;;;;;44.90;33.17;;;;;;;0.21;64.37;94820.31;5050751;28;20217;-74
2024/01/17 01:38:18;;;;;;;44.67;32.93;;;;;;;-0.01;65.38;94830.28;5050638;28;20204;-74
2024/01/17 01:40:44;;;;;;;42.53;33.30;;;;;;;0.06;65.19;94835.94;5051109;28;20205;-73
2024/01/17 01:43:19;;;;;;;44.87;33.40;;;;;;;0.04;65.12;94832.59;5049106;28;20233;-72
2024/01/17 01:46:11;;;;;;;45.00;34.57;;;;;;;0.08;65.16;94850.44;5067863;28;20224;-73
2024/01/17 01:48:37;;;;;;;42.43;32.80;;;;;;;-0.07;65.37;94843.59;5012956;28;20317;-74
2024/01/17 01:51:03;;;;;;;47.47;36.60;;;;;;;0.08;65.42;94845.25;5004200;28;20222;-74
2024/01/17 01:53:32;;;;;;;43.20;33.53;;;;;;;0.03;65.18;94836.94;5026566;28;20194;-73
2024/01/17 01:55:58;;;;;;;43.03;34.93;;;;;;;0.05;65.41;94836.84;5019702;28;20198;-73
2024/01/17 01:58:25;;;;;;;42.37;34.50;;;;;;;0.17;65.47;94849.03;5009327;28;20337;-74
2024/01/17 02:00:54;;;;;;;44.70;33.87;;;;;;;0.26;65.08;94835.53;5035259;28;20275;-73
2024/01/17 02:03:20;;;;;;;44.37;30.77;;;;;;;0.19;65.18;94831.69;5016553;28;20253;-73
2024/01/17 02:05:47;;;;;;;39.03;33.47;;;;;;;0.29;64.90;94842.28;5018171;28;20229;-73
2024/01/17 02:08:13;;;;;;;45.07;34.53;;;;;;;0.22;65.03;94836.66;5014514;28;20181;-74
2024/01/17 02:10:39;;;;;;;45.47;30.83;;;;;;;0.28;65.04;94832.88;5043920;28;20232;-74
2024/01/17 02:13:05;;;;;;;45.03;29.77;;;;;;;0.36;64.57;94823.69;5011912;28;20286;-74
2024/01/17 02:15:31;;;;;;;42.37;29.97;;;;;;;0.26;64.90;94826.94;5015310;28;20233;-75
2024/01/17 02:17:56;;;;;;;47.70;31.07;;;;;;;0.15;65.36;94832.78;5014120;28;20234;-73
2024/01/17 02:20:22;;;;;;;46.70;30.67;;;;;;;-0.03;65.75;94816.63;5028988;28;20198;-73
2024/01/17 02:22:48;;;;;;;42.10;29.30;;;;;;;0.16;65.74;94822.34;5029467;28;20206;-74
2024/01/17 02:25:13;;;;;;;42.03;31.07;;;;;;;0.16;65.65;94822.34;5031805;28;20221;-74
2024/01/17 02:27:39;;;;;;;45.63;34.27;;;;;;;0.21;65.49;94814.28;5042452;28;20237;-74
2024/01/17 02:30:06;;;;;;;44.43;34.33;;;;;;;0.14;65.85;94807.84;5063616;28;20217;-74
2024/01/17 02:32:33;;;;;;;45.30;30.73;;;;;;;0.22;65.08;94801.28;5043885;28;20197;-73
2024/01/17 02:34:59;;;;;;;42.57;30.33;;;;;;;0.25;65.01;94809.78;5035131;28;20204;-74
2024/01/17 02:37:25;;;;;;;44.17;33.70;;;;;;;0.15;65.30;94799.16;5051208;28;20296;-74
2024/01/17 02:39:50;;;;;;;45.10;34.87;;;;;;;0.21;64.95;94799.63;5050744;28;20221;-74
2024/01/17 02:42:15;;;;;;;48.00;36.53;;;;;;;0.33;64.90;94799.78;5067450;28;20221;-74
2024/01/17 02:44:41;;;;;;;49.30;35.03;;;;;;;0.29;65.23;94803.47;5051233;28;20309;-74
2024/01/17 02:47:06;;;;;;;46.20;35.57;;;;;;;0.34;64.86;94804.84;5051331;28;20272;-74
2024/01/17 02:49:32;;;;;;;44.00;33.13;;;;;;;0.33;64.65;94800.63;5049591;28;20286;-73
2024/01/17 02:51:57;;;;;;;45.93;36.17;;;;;;;0.36;65.26;94802.19;5049213;28;20225;-74
2024/01/17 02:54:23;;;;;;;44.60;34.50;;;;;;;0.34;64.93;94799.69;5050890;28;20218;-74
2024/01/17 02:56:49;;;;;;;45.50;31.47;;;;;;;0.26;65.58;94801.09;5050595;28;20268;-73
2024/01/17 02:59:15;;;;;;;42.13;31.33;;;;;;;0.39;64.99;94797.63;5054536;28;20240;-74
2024/01/17 03:01:41;;;;;;;44.70;34.37;;;;;;;0.44;64.73;94805.13;5049880;28;20248;-73
2024/01/17 03:04:06;;;;;;;40.63;28.93;;;;;;;0.50;64.83;94803.91;5054468;28;20310;-72
2024/01/17 03:06:32;;;;;;;42.03;29.83;;;;;;;0.50;64.67;94807.31;5051834;28;20226;-72
2024/01/17 03:08:57;;;;;;;38.30;27.37;;;;;;;0.49;64.42;94810.03;5041442;28;20233;-74
2024/01/17 03:11:22;;;;;;;36.70;26.17;;;;;;;0.57;64.32;94805.19;5050387;28;20249;-74
2024/01/17 03:13:48;;;;;;;39.23;28.27;;;;;;;0.58;64.31;94801.66;5052392;28;20194;-73
2024/01/17 03:16:18;;;;;;;43.73;29.07;;;;;;;0.58;64.64;94814.59;5054194;28;20225;-73
2024/01/17 03:18:44;;;;;;;41.70;28.97;;;;;;;0.58;64.13;94812.84;5054404;28;20312;-73
2024/01/17 03:21:10;;;;;;;36.97;27.93;;;;;;;0.62;64.50;94803.97;5051955;28;20296;-73
2024/01/17 03:23:35;;;;;;;43.17;30.77;;;;;;;0.64;64.17;94806.44;5055362;28;20263;-73
2024/01/17 03:26:01;;;;;;;40.67;28.67;;;;;;;0.60;64.56;94798.06;5053106;28;20217;-73
2024/01/17 03:28:27;;;;;;;42.33;29.77;;;;;;;0.46;65.40;94803.28;5054333;28;20229;-73
2024/01/17 03:30:53;;;;;;;41.17;29.03;;;;;;;0.68;64.21;94792.41;5053961;28;20229;-73
2024/01/17 03:33:18;;;;;;;39.07;27.93;;;;;;;0.59;64.53;94793.81;5052929;28;20256;-73
2024/01/17 03:35:43;;;;;;;41.20;29.00;;;;;;;0.61;64.53;94797.13;5053453;28;20217;-75
2024/01/17 03:38:09;;;;;;;41.90;29.23;;;;;;;0.58;64.32;94799.06;5052615;28;20185;-75
2024/01/17 03:40:34;;;;;;;38.80;27.93;;;;;;;0.57;64.42;94789.66;5054234;28;20221;-75
2024/01/17 03:43:00;;;;;;;42.37;29.30;;;;;;;0.48;64.92;94785.06;5053633;28;20247;-75
2024/01/17 03:45:26;;;;;;;42.23;28.77;;;;;;;0.43;65.16;94783.59;5052830;28;20305;-74
2024/01/17 03:47:52;;;;;;;41.77;29.70;;;;;;;0.56;64.89;94787.97;5045305;28;20304;-74
2024/01/17 03:50:17;;;;;;;40.27;29.30;;;;;;;0.50;64.46;94783.22;5068376;28;20247;-75
2024/01/17 03:52:42;;;;;;;40.93;28.53;;;;;;;0.62;64.58;94788.44;5050037;28;20209;-74
2024/01/17 03:55:08;;;;;;;44.13;29.70;;;;;;;0.41;65.07;94798.38;5053330;28;20372;-74
2024/01/17 03:57:34;;;;;;;38.70;28.67;;;;;;;0.48;64.95;94814.34;5052874;28;20234;-73
2024/01/17 04:00:00;;;;;;;42.80;30.97;;;;;;;0.19;65.87;94814.41;5053428;28;20241;-74
2024/01/17 04:02:26;;;;;;;46.47;34.93;;;;;;;0.26;65.88;94827.78;5052623;28;20231;-73
2024/01/17 04:04:51;;;;;;;45.67;35.27;;;;;;;0.34;65.50;94835.06;5052286;28;20193;-74
2024/01/17 04:07:20;;;;;;;44.93;35.07;;;;;;;0.15;65.79;94835.38;5052017;28;20221;-74
2024/01/17 04:09:46;;;;;;;45.23;34.33;;;;;;;0.15;65.67;94835.38;5051448;28;20245;-75
2024/01/17 04:12:12;;;;;;;46.30;36.10;;;;;;;0.16;66.12;94837.00;5052732;28;20294;-74
2024/01/17 04:14:37;;;;;;;46.63;36.77;;;;;;;0.15;65.69;94833.59;5069795;28;20300;-73
2024/01/17 04:17:03;;;;;;;47.07;36.43;;;;;;;0.18;66.14;94832.59;5069214;28;20182;-74
2024/01/17 04:19:28;;;;;;;46.37;35.00;;;;;;;0.25;65.55;94826.13;5047756;28;20224;-74
2024/01/17 04:21:57;;;;;;;41.63;30.07;;;;;;;0.28;65.60;94827.69;5069648;28;20213;-74
2024/01/17 04:24:26;;;;;;;48.63;35.60;;;;;;;0.28;65.55;94815.59;5048032;28;20280;-74
2024/01/17 04:26:57;;;;;;;45.70;34.97;;;;;;;0.29;65.43;94821.59;5045000;28;20233;-73
2024/01/17 04:29:23;;;;;;;44.57;35.70;;;;;;;0.20;65.55;94815.22;5067807;28;20185;-73
2024/01/17 04:31:48;;;;;;;45.47;33.57;;;;;;;0.34;65.32;94829.88;5051344;28;20185;-74
2024/01/17 04:34:14;;;;;;;44.63;33.27;;;;;;;0.40;65.24;94832.94;5044806;28;20305;-73
2024/01/17 04:36:40;;;;;;;41.13;31.07;;;;;;;0.30;65.62;94829.25;5053155;28;20251;-73
2024/01/17 04:39:05;;;;;;;40.73;31.40;;;;;;;0.32;65.24;94832.59;5050726;28;20225;-74
2024/01/17 04:41:31;;;;;;;42.20;29.10;;;;;;;0.29;65.32;94844.84;5052162;28;20196;-74
2024/01/17 04:43:56;;;;;;;42.23;27.83;;;;;;;0.21;65.46;94828.06;5048539;28;20201;-74
2024/01/17 04:46:22;;;;;;;42.20;30.97;;;;;;;0.24;65.81;94837.38;5052428;28;20213;-74
2024/01/17 04:48:47;;;;;;;43.03;30.00;;;;;;;0.26;65.39;94832.13;5050821;28;20243;-73
2024/01/17 04:51:13;;;;;;;40.53;30.73;;;;;;;0.19;65.31;94836.84;5051795;28;20253;-74
2024/01/17 04:53:43;;;;;;;46.57;36.70;;;;;;;0.13;65.60;94829.44;5051997;28;20233;-74
2024/01/17 04:56:10;;;;;;;38.57;30.53;;;;;;;0.22;65.26;94844.41;5067982;28;20215;-75
2024/01/17 04:58:36;;;;;;;41.47;30.33;;;;;;;0.29;64.64;94845.69;5052467;28;20232;-76
2024/01/17 05:01:02;;;;;;;36.33;26.37;;;;;;;0.14;64.86;94834.53;5068509;28;20224;-76
2024/01/17 05:03:28;;;;;;;34.70;25.23;;;;;;;0.16;64.99;94862.88;5031925;28;20234;-74
2024/01/17 05:05:55;;;;;;;32.73;24.47;;;;;;;0.17;64.87;94870.53;5034166;28;20236;-75
2024/01/17 05:08:20;;;;;;;34.53;24.43;;;;;;;0.30;64.34;94880.16;5053740;28;20185;-75
2024/01/17 05:10:46;;;;;;;38.50;28.93;;;;;;;0.11;65.03;94883.03;5052420;28;20208;-75
2024/01/17 05:13:13;;;;;;;41.47;30.20;;;;;;;0.07;65.08;94894.47;5052408;28;20228;-76
2024/01/17 05:15:39;;;;;;;41.03;30.53;;;;;;;0.14;64.93;94867.31;5052424;28;20225;-75
2024/01/17 05:18:05;;;;;;;37.63;27.10;;;;;;;0.10;64.66;94861.50;5070380;28;20232;-74
2024/01/17 05:20:32;;;;;;;37.53;30.80;;;;;;;0.00;64.99;94850.06;5050603;28;20272;-75
2024/01/17 05:22:58;;;;;;;36.73;29.07;;;;;;;0.01;65.56;94854.28;5054065;28;20212;-74
2024/01/17 05:25:23;;;;;;;34.43;27.47;;;;;;;0.11;65.06;94836.50;5050793;28;20233;-76
2024/01/17 05:27:52;;;;;;;35.40;27.40;;;;;;;0.24;64.70;94824.44;5046908;28;20273;-76
2024/01/17 05:30:21;;;;;;;34.57;25.90;;;;;;;0.27;64.53;94844.13;5037049;28;20270;-76
2024/01/17 05:32:47;;;;;;;31.93;25.80;;;;;;;-0.03;65.30;94856.25;5040698;28;20221;-75
2024/01/17 05:35:16;;;;;;;34.10;26.17;;;;;;;0.02;65.57;94839.63;5070153;28;20269;-74
2024/01/17 05:37:42;;;;;;;41.13;28.20;;;;;;;0.15;65.45;94849.13;5050098;28;20231;-76
2024/01/17 05:40:09;;;;;;;35.47;27.47;;;;;;;0.30;65.35;94847.38;5051662;28;20221;-75
2024/01/17 05:42:36;;;;;;;38.20;27.33;;;;;;;0.26;64.76;94838.13;5045234;28;20229;-77
2024/01/17 05:45:02;;;;;;;35.00;27.03;;;;;;;0.31;65.00;94856.78;5050142;28;20217;-75
2024/01/17 05:47:28;;;;;;;33.27;25.37;;;;;;;0.25;65.03;94838.22;5051865;28;20205;-74
2024/01/17 05:49:53;;;;;;;34.67;25.23;;;;;;;0.29;65.14;94830.16;5052104;28;20181;-74
2024/01/17 05:52:19;;;;;;;30.73;22.43;;;;;;;0.35;65.02;94840.16;5067276;28;20225;-75
2024/01/17 05:54:44;;;;;;;33.80;24.20;;;;;;;0.41;64.94;94857.88;5052082;28;20236;-77
2024/01/17 05:57:10;;;;;;;34.33;24.37;;;;;;;0.34;65.15;94866.94;5068751;28;20324;-76
2024/01/17 05:59:35;;;;;;;35.13;26.20;;;;;;;0.29;65.45;94870.72;5068850;28;20204;-75
2024/01/17 06:02:00;;;;;;;40.17;26.90;;;;;;;0.31;65.64;94866.28;5051310;28;20241;-77
2024/01/17 06:04:26;;;;;;;38.57;28.07;;;;;;;0.35;65.40;94858.25;5047699;28;20229;-76
2024/01/17 06:06:51;;;;;;;32.27;24.67;;;;;;;0.47;65.13;94864.41;5050904;28;20499;-74
2024/01/17 06:09:17;;;;;;;35.10;25.40;;;;;;;0.54;64.78;94844.19;5051236;28;20229;-74
2024/01/17 06:11:43;;;;;;;36.97;26.13;;;;;;;0.56;64.75;94829.38;5046197;28;20272;-73
2024/01/17 06:14:08;;;;;;;40.40;27.40;;;;;;;0.51;65.44;94821.94;5050617;28;20247;-73
2024/01/17 06:16:34;;;;;;;39.27;26.10;;;;;;;0.63;65.31;94828.91;5047652;28;20328;-75
2024/01/17 06:18:59;;;;;;;38.00;26.37;;;;;;;0.58;65.21;94830.13;5050399;28;20236;-74
2024/01/17 06:21:25;;;;;;;41.57;28.07;;;;;;;0.69;64.68;94834.63;5050681;28;20217;-72
2024/01/17 06:23:51;;;;;;;37.33;25.20;;;;;;;0.73;64.46;94834.34;5048269;28;20239;-73
2024/01/17 06:26:17;;;;;;;36.50;26.03;;;;;;;0.72;64.63;94840.44;5050142;28;20276;-73
2024/01/17 06:28:42;;;;;;;36.87;27.03;;;;;;;0.71;65.16;94840.53;5050534;28;20232;-74
2024/01/17 06:31:08;;;;;;;39.27;27.23;;;;;;;0.53;65.15;94840.75;5066526;28;20229;-73
2024/01/17 06:33:33;;;;;;;35.70;26.27;;;;;;;0.59;65.33;94870.63;5054835;28;20217;-73
2024/01/17 06:35:59;;;;;;;36.90;26.93;;;;;;;0.47;65.63;94868.78;5054470;28;20216;-74
2024/01/17 06:38:24;;;;;;;37.07;27.47;;;;;;;0.54;65.00;94857.13;5053213;28;20199;-74
2024/01/17 06:40:50;;;;;;;37.57;26.50;;;;;;;0.55;65.27;94861.38;5055867;28;20284;-76
2024/01/17 06:43:16;;;;;;;39.83;27.83;;;;;;;0.46;65.73;94865.38;5051514;28;20217;-73
2024/01/17 06:45:42;;;;;;;37.20;27.27;;;;;;;0.62;65.19;94855.72;5054640;28;20241;-74
2024/01/17 06:48:08;;;;;;;33.13;24.63;;;;;;;0.60;65.55;94862.75;5069661;28;20244;-71
2024/01/17 06:50:34;;;;;;;35.93;25.53;;;;;;;0.68;65.32;94869.19;5071630;28;20190;-74
2024/01/17 06:52:59;;;;;;;32.17;24.13;;;;;;;0.49;66.14;94872.94;5049387;28;20181;-73
2024/01/17 06:55:25;;;;;;;38.83;28.43;;;;;;;0.63;65.46;94862.53;5054007;28;20221;-76
2024/01/17 06:57:51;;;;;;;34.47;25.33;;;;;;;0.76;65.53;94867.78;5071445;28;20237;-80
2024/01/17 07:00:17;;;;;;;32.87;25.63;;;;;;;0.84;64.97;94862.97;5053540;28;20245;-80
2024/01/17 07:02:43;;;;;;;34.70;25.57;;;;;;;0.74;65.39;94854.09;5055515;28;20225;-76
2024/01/17 07:05:09;;;;;;;36.60;26.10;;;;;;;0.86;65.16;94852.53;5057195;28;20193;-76
2024/01/17 07:07:34;;;;;;;35.00;24.33;;;;;;;0.93;64.61;94852.94;5052536;28;20217;-72
2024/01/17 07:10:00;;;;;;;34.53;25.13;;;;;;;0.89;64.83;94847.16;5055139;28;20228;-76
2024/01/17 07:12:25;;;;;;;32.07;24.70;;;;;;;1.05;64.35;94836.66;5055723;28;20213;-74
2024/01/17 07:14:54;;;;;;;35.07;25.17;;;;;;;1.13;64.10;94847.34;5071707;28;20224;-74
2024/01/17 07:17:19;;;;;;;31.97;24.63;;;;;;;1.19;63.98;94836.56;5054195;28;20197;-74
2024/01/17 07:19:45;;;;;;;32.07;24.30;;;;;;;1.42;63.86;94837.66;5054241;28;20189;-73
2024/01/17 07:22:10;;;;;;;30.90;23.33;;;;;;;1.57;63.49;94843.59;5050979;28;20240;-74
2024/01/17 07:24:36;;;;;;;29.73;22.70;;;;;;;1.69;62.32;94841.97;5053243;28;20245;-75
2024/01/17 07:27:01;;;;;;;29.37;21.27;;;;;;;1.70;62.33;94857.41;5051761;28;20222;-75
2024/01/17 07:29:27;;;;;;;23.03;18.77;;;;;;;1.60;61.83;94858.09;5055302;28;20192;-79
2024/01/17 07:31:52;;;;;;;29.73;21.00;;;;;;;1.63;61.65;94863.06;5055648;28;20217;-76
2024/01/17 07:34:18;;;;;;;28.27;20.40;;;;;;;1.76;61.53;94875.16;5067650;28;20224;-73
2024/01/17 07:36:44;;;;;;;30.67;23.63;;;;;;;1.80;61.86;94873.19;5048875;28;20224;-71
2024/01/17 07:39:10;;;;;;;30.27;23.70;;;;;;;1.89;61.53;94879.50;5065197;28;20230;-72
2024/01/17 07:41:36;;;;;;;26.50;20.70;;;;;;;1.70;61.77;94867.75;5069698;28;20190;-72
2024/01/17 07:44:02;;;;;;;28.17;21.13;;;;;;;1.52;62.59;94867.22;5052202;28;20209;-71
2024/01/17 07:46:27;;;;;;;22.23;19.50;;;;;;;1.63;61.91;94860.50;5052276;28;20236;-72
2024/01/17 07:48:53;;;;;;;23.60;18.87;;;;;;;1.66;61.21;94866.31;5051056;28;20233;-73
2024/01/17 07:51:19;;;;;;;22.63;18.23;;;;;;;1.86;60.93;94864.97;5054029;28;20221;-72
2024/01/17 07:53:44;;;;;;;23.00;18.30;;;;;;;1.96;60.01;94860.00;5051680;28;20298;-72
2024/01/17 07:56:10;;;;;;;25.60;17.50;;;;;;;2.09;60.02;94867.81;5049554;28;20213;-72
2024/01/17 07:58:35;;;;;;;22.43;17.77;;;;;;;1.94;60.33;94862.69;5052670;28;20234;-73
2024/01/17 08:01:00;;;;;;;25.13;17.80;;;;;;;1.86;60.24;94857.19;5054592;28;20217;-74
2024/01/17 08:03:26;;;;;;;19.67;16.73;;;;;;;1.71;60.01;94845.25;5052889;28;20236;-77
2024/01/17 08:05:51;;;;;;;18.63;15.37;;;;;;;1.91;59.21;94842.16;5053603;28;20260;-77
2024/01/17 08:08:17;;;;;;;23.93;17.97;;;;;;;1.82;59.53;94857.50;5054742;28;20197;-77
2024/01/17 08:10:42;;;;;;;25.43;19.30;;;;;;;2.02;60.20;94859.59;5053190;28;20226;-76
2024/01/17 08:13:08;;;;;;;24.27;16.77;;;;;;;2.15;59.35;94859.59;5050767;28;20228;-76
2024/01/17 08:15:33;;;;;;;25.17;17.57;;;;;;;2.06;59.97;94863.66;5049846;28;20218;-76
2024/01/17 08:17:58;;;;;;;23.83;18.70;;;;;;;2.11;59.84;94863.31;5054306;28;20268;-76
2024/01/17 08:20:24;;;;;;;23.00;17.83;;;;;;;1.87;59.79;94874.44;5056769;28;20196;-75
2024/01/17 08:22:49;;;;;;;21.80;16.87;;;;;;;1.93;59.84;94860.22;5054571;28;20217;-76
2024/01/17 08:25:15;;;;;;;21.40;17.03;;;;;;;1.94;59.92;94883.44;5052017;28;20214;-75
2024/01/17 08:27:40;;;;;;;21.80;16.83;;;;;;;2.16;59.78;94874.22;5052224;28;20221;-77
2024/01/17 08:30:09;;;;;;;24.17;18.30;;;;;;;2.40;58.99;94884.69;5054097;28;20301;-75
2024/01/17 08:32:35;;;;;;;24.60;18.17;;;;;;;2.44;59.02;94878.34;5044274;28;20185;-75
2024/01/17 08:35:01;;;;;;;24.50;19.20;;;;;;;2.30;59.64;94870.66;5048398;28;20197;-72
2024/01/17 08:37:26;;;;;;;24.63;19.43;;;;;;;2.31;59.23;94855.00;5050302;28;20222;-73
2024/01/17 08:39:51;;;;;;;25.40;19.70;;;;;;;2.33;59.77;94857.50;5050969;28;20217;-72
2024/01/17 08:42:17;;;;;;;28.53;20.47;;;;;;;2.50;59.12;94869.31;5049727;28;20311;-71
2024/01/17 08:44:43;;;;;;;26.80;21.13;;;;;;;2.56;59.33;94881.84;5047691;28;20221;-72
2024/01/17 08:47:08;;;;;;;26.00;20.70;;;;;;;2.53;59.25;94885.50;5043754;28;20233;-70
2024/01/17 08:49:38;;;;;;;29.43;22.20;;;;;;;2.59;59.62;94884.22;5028805;28;20213;-70
2024/01/17 08:52:04;;;;;;;27.83;22.27;;;;;;;2.65;59.47;94881.22;5040870;28;20340;-68
2024/01/17 08:54:29;;;;;;;30.33;23.93;;;;;;;2.53;59.77;94862.13;5045383;28;20300;-70
2024/01/17 08:56:55;;;;;;;36.40;25.77;;;;;;;2.54;59.73;94869.00;5060608;28;20234;-71
2024/01/17 08:59:20;;;;;;;36.30;27.67;;;;;;;2.57;60.10;94879.16;5038136;28;20181;-70
2024/01/17 09:01:46;;;;;;;37.97;26.73;;;;;;;2.71;59.19;94888.59;5038587;28;20292;-71
2024/01/17 09:04:11;;;;;;;38.07;26.37;;;;;;;2.80;58.78;94876.72;5041991;28;20225;-71
2024/01/17 09:06:37;;;;;;;40.60;26.23;;;;;;;2.94;58.48;94871.41;5060016;28;20245;-69
2024/01/17 09:09:03;;;;;;;35.63;27.67;;;;;;;2.83;58.38;94866.97;5041677;28;20217;-71
2024/01/17 09:11:29;;;;;;;35.80;28.20;;;;;;;2.92;58.47;94869.84;5041731;28;20189;-73
2024/01/17 09:13:55;;;;;;;36.07;28.17;;;;;;;3.12;57.76;94871.00;5046631;28;20269;-74
2024/01/17 09:16:21;;;;;;;38.60;28.97;;;;;;;2.93;58.50;94855.91;5043597;28;20222;-74
2024/01/17 09:18:46;;;;;;;41.77;29.27;;;;;;;2.82;58.38;94848.88;5044390;28;20306;-73
2024/01/17 09:21:11;;;;;;;36.93;28.13;;;;;;;2.79;58.41;94829.16;5047576;28;20249;-74
2024/01/17 09:23:37;;;;;;;37.07;28.13;;;;;;;2.66;59.08;94841.34;5060758;28;20193;-74
2024/01/17 09:26:03;;;;;;;37.83;28.73;;;;;;;2.67;58.80;94835.19;5059219;28;20189;-73
2024/01/17 09:28:29;;;;;;;38.17;30.07;;;;;;;2.82;58.23;94830.69;5044582;28;20233;-72
2024/01/17 09:30:54;;;;;;;38.03;28.53;;;;;;;2.74;58.46;94843.41;5043419;28;20236;-72
2024/01/17 09:33:19;;;;;;;38.63;26.83;;;;;;;2.96;58.69;94835.72;5042455;28;20229;-72
2024/01/17 09:35:45;;;;;;;38.17;28.10;;;;;;;2.82;59.04;94812.53;5044659;28;20238;-75
2024/01/17 09:38:12;;;;;;;37.43;28.00;;;;;;;2.98;58.38;94823.47;5041399;28;20272;-73
2024/01/17 09:40:38;;;;;;;35.80;28.20;;;;;;;3.19;57.96;94802.91;5041962;28;20225;-75
2024/01/17 09:43:06;;;;;;;40.10;29.40;;;;;;;3.16;57.75;94849.06;5044650;28;20221;-72
2024/01/17 09:45:33;;;;;;;39.73;28.80;;;;;;;3.24;57.49;94828.56;5045548;28;20252;-71
2024/01/17 09:48:00;;;;;;;36.53;27.90;;;;;;;3.28;57.55;94835.16;5044847;28;20229;-72
2024/01/17 09:50:26;;;;;;;40.90;29.53;;;;;;;3.24;57.25;94803.41;5057857;28;20608;-71
2024/01/17 09:52:54;;;;;;;38.30;27.90;;;;;;;3.40;56.60;94810.06;5042305;28;20227;-71
2024/01/17 09:55:20;;;;;;;36.10;28.33;;;;;;;3.26;56.94;94791.13;5039642;28;20240;-69
2024/01/17 09:57:53;;;;;;;39.30;28.43;;;;;;;3.40;56.79;94804.88;5042153;28;20324;-71
2024/01/17 10:00:19;;;;;;;38.97;28.07;;;;;;;3.27;56.65;94792.78;5045719;28;20240;-74
2024/01/17 10:02:46;;;;;;;45.20;28.27;;;;;;;3.41;56.52;94768.34;5039593;28;20245;-70
2024/01/17 10:05:12;;;;;;;38.47;27.17;;;;;;;3.28;56.60;94797.00;5062824;28;20192;-72
2024/01/17 10:07:38;;;;;;;39.13;27.90;;;;;;;3.49;56.14;94758.22;5052215;28;20226;-72
2024/01/17 10:10:04;;;;;;;35.17;28.30;;;;;;;3.54;56.16;94774.28;5048840;28;20229;-72
2024/01/17 10:12:30;;;;;;;37.13;29.47;;;;;;;3.61;55.93;94785.06;5051798;28;20229;-71
2024/01/17 10:14:55;;;;;;;39.20;29.07;;;;;;;3.63;56.32;94779.75;5044567;28;20228;-71
2024/01/17 10:17:21;;;;;;;41.57;29.80;;;;;;;3.67;56.29;94766.41;5052579;28;20200;-70
2024/01/17 10:19:47;;;;;;;42.43;30.17;;;;;;;3.56;56.53;94786.38;5052408;28;20272;-69
2024/01/17 10:22:13;;;;;;;42.63;29.43;;;;;;;3.65;56.08;94757.06;5050074;28;20232;-73
2024/01/17 10:24:39;;;;;;;42.30;29.07;;;;;;;3.87;55.28;94784.84;5046988;28;20241;-70
2024/01/17 10:27:06;;;;;;;45.77;31.70;;;;;;;3.89;55.86;94752.59;5049107;28;20274;-71
2024/01/17 10:29:32;;;;;;;46.93;31.00;;;;;;;3.90;56.04;94758.59;5050136;28;20185;-70
2024/01/17 10:31:59;;;;;;;43.43;30.40;;;;;;;4.15;55.04;94749.75;5047848;28;20181;-71
2024/01/17 10:34:28;;;;;;;42.83;31.40;;;;;;;4.20;54.50;94761.47;5052292;28;20321;-71
2024/01/17 10:36:55;;;;;;;40.63;30.57;;;;;;;4.36;53.93;94745.47;5049700;28;20229;-73
2024/01/17 10:39:21;;;;;;;41.67;30.73;;;;;;;4.10;54.74;94742.31;5051064;28;20294;-73
2024/01/17 10:41:51;;;;;;;40.70;29.27;;;;;;;4.37;53.61;94728.91;5049694;28;20248;-72
2024/01/17 10:44:18;;;;;;;43.03;30.27;;;;;;;4.29;54.47;94736.47;5067696;28;20286;-72
2024/01/17 10:46:46;;;;;;;37.93;29.13;;;;;;;4.48;53.49;94729.81;5049112;28;20232;-71
2024/01/17 10:49:11;;;;;;;40.77;27.77;;;;;;;4.36;53.77;94714.25;5048937;28;20225;-71
2024/01/17 10:51:41;;;;;;;39.03;27.37;;;;;;;4.67;53.32;94716.97;5050357;28;20232;-70
2024/01/17 10:54:11;;;;;;;38.40;26.93;;;;;;;4.55;52.84;94712.78;5051082;28;20233;-70
2024/01/17 10:56:45;;;;;;;44.27;26.20;;;;;;;4.60;53.13;94695.00;5054293;28;20222;-73
2024/01/17 10:59:14;;;;;;;35.53;24.17;;;;;;;4.55;53.26;94697.16;5052649;28;20185;-70
2024/01/17 11:01:46;;;;;;;26.73;21.73;;;;;;;4.71;52.92;94699.34;5054625;28;20300;-69
2024/01/17 11:04:18;;;;;;;31.23;22.13;;;;;;;5.08;51.42;94687.56;5049240;28;20225;-70
2024/01/17 11:06:44;;;;;;;27.00;21.03;;;;;;;4.96;51.92;94692.97;5051986;28;20225;-70
2024/01/17 11:09:11;;;;;;;32.80;20.53;;;;;;;5.09;51.24;94683.19;5050793;28;20435;-71
2024/01/17 11:11:38;;;;;;;31.00;20.50;;;;;;;4.92;51.74;94673.31;5049808;28;20186;-68
2024/01/17 11:14:05;;;;;;;29.70;21.83;;;;;;;5.03;51.51;94668.06;5051971;28;20185;-72
2024/01/17 11:16:33;;;;;;;26.67;20.83;;;;;;;5.03;51.22;94655.03;5050460;28;20218;-70
2024/01/17 11:19:00;;;;;;;26.73;20.87;;;;;;;5.30;50.23;94644.91;5051267;28;20221;-71